Time;durP1;ratioP1;P1;durP2;ratioP2;P2;SDS_P1;SDS_P2;PMS_P1;PMS_P2;Temp;Humidity;BMP_temperature;BMP_pressure;BME280_temperature;BME280_humidity;BME280_pressure;Samples;Min_cycle;Max_cycle;Signal;HPM_P1;HPM_P2
2021/12/02 00:00:38;;;;;;;5.00;2.40;;;;;;;3.06;100.00;99877.47;5009085;28;20065;-58
2021/12/02 00:03:06;;;;;;;6.90;2.13;;;;;;;3.05;100.00;99879.16;5009623;28;20045;-57
2021/12/02 00:05:32;;;;;;;8.83;2.50;;;;;;;3.03;100.00;99880.75;5009045;28;20037;-58
2021/12/02 00:07:57;;;;;;;7.57;2.30;;;;;;;3.02;100.00;99883.25;5008603;28;20053;-58
2021/12/02 00:10:27;;;;;;;8.23;2.17;;;;;;;3.00;100.00;99883.19;5009312;28;20117;-58
2021/12/02 00:12:55;;;;;;;8.25;2.03;;;;;;;3.00;100.00;99898.53;5009036;28;20142;-57
2021/12/02 00:15:24;;;;;;;11.73;3.17;;;;;;;3.00;100.00;99894.28;5009158;28;20116;-57
2021/12/02 00:17:57;;;;;;;6.63;1.43;;;;;;;3.00;100.00;99898.53;5008915;28;20400;-57
2021/12/02 00:23:32;;;;;;;7.13;1.83;;;;;;;3.01;100.00;99887.50;5008979;28;20052;-58
2021/12/02 00:25:59;;;;;;;6.13;1.60;;;;;;;3.03;100.00;99892.69;5007055;28;20390;-56
2021/12/02 00:28:27;;;;;;;6.77;1.80;;;;;;;3.05;100.00;99896.19;5008213;28;20116;-58
2021/12/02 00:31:00;;;;;;;6.80;1.63;;;;;;;3.04;100.00;99895.31;5008819;28;20109;-57
2021/12/02 00:33:30;;;;;;;6.17;1.60;;;;;;;3.05;100.00;99885.94;5009114;28;20510;-58
2021/12/02 00:35:55;;;;;;;5.50;1.80;;;;;;;3.04;100.00;99885.06;5008859;28;20100;-58
2021/12/02 00:38:23;;;;;;;7.40;1.70;;;;;;;3.05;100.00;99881.72;5008768;28;20108;-58
2021/12/02 00:40:50;;;;;;;7.03;2.33;;;;;;;3.04;100.00;99879.94;5008657;28;20096;-57
2021/12/02 00:43:15;;;;;;;8.17;1.90;;;;;;;3.03;100.00;99879.88;5009383;28;20478;-58
2021/12/02 00:45:42;;;;;;;11.10;1.53;;;;;;;3.02;100.00;99879.03;5008634;28;20041;-58
2021/12/02 00:48:09;;;;;;;4.50;1.77;;;;;;;3.03;100.00;99882.44;5009156;28;20425;-57
2021/12/02 00:50:36;;;;;;;6.80;1.40;;;;;;;3.04;100.00;99879.09;5008907;28;20389;-58
2021/12/02 00:53:03;;;;;;;3.67;1.20;;;;;;;3.05;100.00;99886.84;5008945;28;20544;-58
2021/12/02 00:55:29;;;;;;;5.50;1.20;;;;;;;3.04;100.00;99873.97;5008673;28;20073;-58
2021/12/02 00:57:56;;;;;;;10.10;1.90;;;;;;;3.03;100.00;99878.19;5008832;28;20057;-56
2021/12/02 01:00:22;;;;;;;7.07;1.43;;;;;;;3.04;100.00;99869.69;5008524;28;20030;-58
2021/12/02 01:02:49;;;;;;;7.77;1.40;;;;;;;3.03;100.00;99872.19;5008442;28;20037;-58
2021/12/02 01:05:14;;;;;;;3.67;1.40;;;;;;;3.04;100.00;99879.94;5008656;28;20033;-58
2021/12/02 01:07:42;;;;;;;4.23;1.30;;;;;;;3.03;100.00;99878.19;5008445;28;20049;-57
2021/12/02 01:10:08;;;;;;;10.20;1.97;;;;;;;3.02;100.00;99884.13;5008757;28;20026;-57
2021/12/02 01:12:36;;;;;;;7.60;1.80;;;;;;;3.03;100.00;99892.69;5009707;28;20053;-58
2021/12/02 01:15:03;;;;;;;4.87;1.93;;;;;;;3.01;100.00;99884.94;5006978;28;20021;-58
2021/12/02 01:17:29;;;;;;;8.33;1.60;;;;;;;3.01;100.00;99884.94;5012295;28;20590;-57
2021/12/02 01:19:55;;;;;;;7.90;1.50;;;;;;;3.02;100.00;99890.94;5011477;28;20030;-58
2021/12/02 01:22:21;;;;;;;8.80;1.47;;;;;;;3.01;100.00;99884.94;5012280;28;20068;-56
2021/12/02 01:24:49;;;;;;;4.47;1.30;;;;;;;3.02;100.00;99886.69;5009411;28;20018;-58
2021/12/02 01:27:16;;;;;;;6.60;1.70;;;;;;;3.01;100.00;99895.16;5005705;28;20025;-56
2021/12/02 01:29:42;;;;;;;7.47;2.77;;;;;;;3.03;100.00;99892.69;5008447;28;20445;-58
2021/12/02 01:32:10;;;;;;;7.43;1.63;;;;;;;3.02;100.00;99890.94;5011688;28;20096;-58
2021/12/02 01:34:36;;;;;;;4.10;1.53;;;;;;;3.03;100.00;99897.78;5011783;28;20025;-58
2021/12/02 01:37:08;;;;;;;4.27;1.33;;;;;;;3.04;100.00;99895.31;5011598;28;20696;-58
2021/12/02 01:39:34;;;;;;;6.73;1.43;;;;;;;3.06;100.00;99903.09;5006624;28;20118;-58
2021/12/02 01:42:00;;;;;;;4.10;1.17;;;;;;;3.06;100.00;99898.81;5011537;28;20506;-58
2021/12/02 01:44:28;;;;;;;5.83;1.13;;;;;;;3.07;100.00;99898.03;5011742;28;20022;-57
2021/12/02 01:46:57;;;;;;;7.73;1.30;;;;;;;3.08;100.00;99899.78;5011442;28;20576;-58
2021/12/02 01:49:27;;;;;;;3.30;0.77;;;;;;;3.09;100.00;99908.34;5011627;28;20068;-58
2021/12/02 01:51:55;;;;;;;6.87;1.33;;;;;;;3.10;100.00;99905.84;5008330;28;20037;-58
2021/12/02 01:54:23;;;;;;;5.30;1.13;;;;;;;3.09;100.00;99911.78;5005171;28;20409;-57
2021/12/02 01:57:07;;;;;;;4.13;1.20;;;;;;;3.10;100.00;99905.84;5006055;28;20053;-58
2021/12/02 01:59:36;;;;;;;4.43;1.00;;;;;;;3.10;100.00;99912.66;5011757;28;20030;-58
2021/12/02 02:02:05;;;;;;;7.63;1.10;;;;;;;3.09;100.00;99916.03;5011059;28;20036;-56
2021/12/02 02:04:30;;;;;;;2.93;0.93;;;;;;;3.06;100.00;99909.06;5011300;28;20026;-56
2021/12/02 02:07:10;;;;;;;7.23;1.27;;;;;;;3.06;100.00;99915.88;5010629;28;20107;-58
2021/12/02 02:09:35;;;;;;;4.03;1.50;;;;;;;3.02;100.00;99914.84;5011219;28;20030;-58
2021/12/02 02:12:04;;;;;;;3.70;0.90;;;;;;;3.02;100.00;99913.97;5011171;28;20033;-58
2021/12/02 02:14:31;;;;;;;4.03;0.80;;;;;;;2.97;100.00;99913.72;5011426;28;20123;-58
2021/12/02 02:17:00;;;;;;;4.43;0.77;;;;;;;2.89;100.00;99913.38;5009677;28;20049;-58
2021/12/02 02:19:30;;;;;;;4.33;1.10;;;;;;;2.79;100.00;99911.19;5010755;28;20057;-58
2021/12/02 02:21:56;;;;;;;3.87;0.73;;;;;;;2.73;100.00;99915.22;5010759;28;20026;-57
2021/12/02 02:24:22;;;;;;;6.50;0.90;;;;;;;2.66;100.00;99907.16;5010742;28;20032;-58
2021/12/02 02:26:48;;;;;;;3.20;1.20;;;;;;;2.57;100.00;99913.56;5010578;28;20021;-58
2021/12/02 02:29:14;;;;;;;4.43;1.80;;;;;;;2.50;100.00;99904.69;5010748;28;20373;-58
2021/12/02 02:31:42;;;;;;;8.00;1.43;;;;;;;2.47;100.00;99899.44;5010767;28;20105;-58
2021/12/02 02:34:08;;;;;;;6.80;1.77;;;;;;;2.40;100.00;99900.81;5010555;28;20030;-58
2021/12/02 02:36:38;;;;;;;4.33;1.53;;;;;;;2.40;100.00;99900.81;5010401;28;20076;-57
2021/12/02 02:39:05;;;;;;;5.23;1.70;;;;;;;2.40;100.00;99897.38;5010793;28;20026;-57
2021/12/02 02:41:35;;;;;;;4.83;1.40;;;;;;;2.35;100.00;99888.59;5010234;28;20064;-56
2021/12/02 02:44:01;;;;;;;3.47;1.57;;;;;;;2.34;100.00;99894.53;5010751;28;20030;-58
2021/12/02 02:46:30;;;;;;;4.60;1.40;;;;;;;2.34;100.00;99897.94;5010244;28;20033;-58
2021/12/02 02:48:57;;;;;;;4.93;1.40;;;;;;;2.32;100.00;99902.09;5010278;28;20029;-58
2021/12/02 02:51:24;;;;;;;4.93;1.50;;;;;;;2.28;100.00;99892.53;5008274;28;20787;-56
2021/12/02 02:53:55;;;;;;;3.70;1.03;;;;;;;2.28;100.00;99888.25;5010437;28;20025;-59
2021/12/02 02:56:23;;;;;;;4.77;1.30;;;;;;;2.29;100.00;99889.16;5010068;28;20053;-58
2021/12/02 03:06:45;;;;;;;3.43;0.80;;;;;;;2.37;100.00;99900.66;4987371;28;20105;-58
2021/12/02 03:09:20;;;;;;;4.67;0.93;;;;;;;2.38;100.00;99889.63;4992747;28;20073;-58
2021/12/02 03:11:51;;;;;;;5.83;1.00;;;;;;;2.39;100.00;99899.03;4987898;28;20469;-57
2021/12/02 03:14:27;;;;;;;4.77;1.00;;;;;;;2.40;100.00;99895.69;4996543;28;20038;-58
2021/12/02 03:16:53;;;;;;;7.90;1.03;;;;;;;2.38;100.00;99889.63;4989678;28;20466;-57
2021/12/02 03:19:29;;;;;;;3.40;0.83;;;;;;;2.40;100.00;99908.47;4995396;28;20111;-56
2021/12/02 03:21:57;;;;;;;3.87;0.80;;;;;;;2.40;100.00;99916.16;4996866;28;20070;-57
2021/12/02 03:24:24;;;;;;;3.63;0.73;;;;;;;2.42;100.00;99917.91;4995038;28;20463;-58
2021/12/02 03:26:50;;;;;;;5.23;1.20;;;;;;;2.41;100.00;99911.94;4992566;28;20093;-58
2021/12/02 03:29:16;;;;;;;5.47;1.13;;;;;;;2.40;100.00;99916.16;4990221;28;20038;-58
2021/12/02 03:31:42;;;;;;;6.93;1.13;;;;;;;2.38;100.00;99920.31;4991632;28;20177;-57
2021/12/02 03:34:07;;;;;;;4.37;1.37;;;;;;;2.36;100.00;99919.34;4984896;28;20030;-57
2021/12/02 03:36:34;;;;;;;6.33;1.23;;;;;;;2.37;100.00;99926.25;4994964;28;20046;-57
2021/12/02 03:38:59;;;;;;;5.13;1.50;;;;;;;2.36;100.00;99924.47;4989924;28;20043;-58
2021/12/02 03:41:25;;;;;;;5.97;1.13;;;;;;;2.38;100.00;99919.41;4994141;28;20689;-57
2021/12/02 03:43:52;;;;;;;6.27;1.20;;;;;;;2.38;100.00;99921.97;4994938;28;20120;-58
2021/12/02 03:46:20;;;;;;;5.73;1.20;;;;;;;2.39;100.00;99929.72;5009207;28;20025;-58
2021/12/02 03:48:46;;;;;;;4.07;1.03;;;;;;;2.41;100.00;99932.38;5009556;28;20453;-58
2021/12/02 03:51:12;;;;;;;3.73;1.17;;;;;;;2.43;100.00;99932.47;5009704;28;20044;-58
2021/12/02 03:53:38;;;;;;;5.30;1.03;;;;;;;2.40;100.00;99926.38;5009426;28;20074;-58
2021/12/02 03:56:06;;;;;;;5.13;0.80;;;;;;;2.40;100.00;99926.38;5009076;28;20147;-57
2021/12/02 03:58:32;;;;;;;4.90;1.00;;;;;;;2.40;100.00;99931.50;5009499;28;20030;-57
2021/12/02 04:00:57;;;;;;;2.67;0.80;;;;;;;2.40;100.00;99926.38;5009658;28;20466;-57
2021/12/02 04:03:22;;;;;;;3.27;0.80;;;;;;;2.39;100.00;99924.59;5009598;28;20037;-58
2021/12/02 04:05:48;;;;;;;5.47;1.10;;;;;;;2.40;100.00;99926.38;5004036;28;20116;-57
2021/12/02 04:08:14;;;;;;;6.70;1.33;;;;;;;2.39;100.00;99918.63;5009421;28;20057;-58
2021/12/02 04:10:41;;;;;;;5.17;1.03;;;;;;;2.39;100.00;99913.53;5009272;28;20176;-57
2021/12/02 04:13:24;;;;;;;5.40;0.87;;;;;;;2.38;100.00;99919.41;5008522;28;20171;-58
2021/12/02 04:15:54;;;;;;;6.20;0.93;;;;;;;2.37;100.00;99915.13;5003669;28;20359;-58
2021/12/02 04:18:19;;;;;;;5.40;0.90;;;;;;;2.35;100.00;99901.38;5009224;28;20423;-57
2021/12/02 04:27:27;;;;;;;7.03;1.80;;;;;;;2.32;100.00;99917.44;5008456;28;20045;-58
2021/12/02 04:29:53;;;;;;;4.63;1.27;;;;;;;2.30;100.00;99919.06;5009355;28;20021;-57
2021/12/02 04:32:18;;;;;;;5.13;1.10;;;;;;;2.28;100.00;99915.53;5009045;28;20068;-57
2021/12/02 04:34:44;;;;;;;3.30;1.10;;;;;;;2.30;100.00;99919.06;5009543;28;20060;-58
2021/12/02 04:37:09;;;;;;;4.63;0.97;;;;;;;2.30;100.00;99929.28;5008807;28;20054;-58
2021/12/02 04:39:34;;;;;;;7.03;1.10;;;;;;;2.31;100.00;99935.25;5009057;28;20061;-58
2021/12/02 04:41:59;;;;;;;2.93;1.00;;;;;;;2.32;100.00;99937.88;5009663;28;20033;-57
2021/12/02 04:44:25;;;;;;;4.37;1.10;;;;;;;2.32;100.00;99950.66;5008840;28;20056;-58
2021/12/02 04:46:51;;;;;;;4.67;1.30;;;;;;;2.33;100.00;99954.13;5008884;28;20041;-58
2021/12/02 04:49:36;;;;;;;3.13;0.80;;;;;;;2.33;100.00;99957.56;5012763;28;20030;-58
2021/12/02 04:52:02;;;;;;;7.07;1.00;;;;;;;2.33;100.00;99952.44;5012632;28;20034;-57
2021/12/02 04:54:27;;;;;;;4.80;0.70;;;;;;;2.33;100.00;99949.00;5012599;28;20079;-58
2021/12/02 04:56:53;;;;;;;3.37;0.80;;;;;;;2.33;100.00;99954.13;5012550;28;20382;-58
2021/12/02 04:59:18;;;;;;;5.67;1.00;;;;;;;2.31;100.00;99951.47;5012972;28;20095;-58
2021/12/02 05:01:43;;;;;;;4.13;0.60;;;;;;;2.29;100.00;99942.84;5012573;28;20160;-58
2021/12/02 05:04:09;;;;;;;4.30;0.60;;;;;;;2.26;100.00;99955.50;5012716;28;20148;-58
2021/12/02 05:06:34;;;;;;;3.17;0.77;;;;;;;2.24;100.00;99951.97;5012163;28;20038;-56
2021/12/02 05:09:00;;;;;;;2.60;0.60;;;;;;;2.19;100.00;99953.41;5013130;28;20154;-56
2021/12/02 05:11:25;;;;;;;6.60;0.90;;;;;;;2.14;100.00;99958.28;5012833;28;20109;-57
2021/12/02 05:13:51;;;;;;;3.50;0.70;;;;;;;2.12;100.00;99959.88;5012588;28;20092;-58
2021/12/02 05:16:16;;;;;;;6.40;0.90;;;;;;;2.09;100.00;99960.59;5012563;28;20022;-57
2021/12/02 05:18:41;;;;;;;4.03;0.50;;;;;;;2.06;100.00;99965.56;5012499;28;20095;-57
2021/12/02 05:21:07;;;;;;;7.03;1.30;;;;;;;2.06;100.00;99975.78;5012491;28;20462;-58
2021/12/02 05:23:33;;;;;;;5.43;1.50;;;;;;;2.07;100.00;99982.63;5012240;28;20042;-57
2021/12/02 05:25:58;;;;;;;5.10;1.07;;;;;;;2.07;100.00;99987.75;5011842;28;20038;-57
2021/12/02 05:28:24;;;;;;;7.60;1.30;;;;;;;2.08;100.00;99988.63;5012282;28;20034;-58
2021/12/02 05:30:50;;;;;;;4.30;0.93;;;;;;;2.05;100.00;99984.25;5012050;28;20105;-56
2021/12/02 05:33:15;;;;;;;3.73;0.60;;;;;;;1.98;100.00;99980.47;5012137;28;20018;-56
2021/12/02 05:35:41;;;;;;;2.43;0.70;;;;;;;1.92;100.00;99982.72;5011973;28;20383;-58
2021/12/02 05:38:06;;;;;;;2.57;0.70;;;;;;;1.89;100.00;99982.56;5011897;28;20064;-58
2021/12/02 05:40:32;;;;;;;1.93;0.57;;;;;;;1.88;100.00;99976.56;5012100;28;20036;-58
2021/12/02 05:42:58;;;;;;;2.27;0.70;;;;;;;1.87;100.00;99974.78;5011713;28;20115;-59
2021/12/02 05:45:23;;;;;;;4.80;0.93;;;;;;;1.85;100.00;99975.53;5011339;28;20049;-58
2021/12/02 05:47:48;;;;;;;2.80;0.90;;;;;;;1.84;100.00;99984.84;5011631;28;20417;-58
2021/12/02 05:50:14;;;;;;;4.10;1.23;;;;;;;1.81;100.00;99974.47;5011290;28;20034;-58
2021/12/02 05:52:39;;;;;;;6.30;1.30;;;;;;;1.78;100.00;99964.09;5011113;28;20029;-58
2021/12/02 05:55:05;;;;;;;3.63;0.90;;;;;;;1.80;100.00;99972.69;5010936;28;20025;-56
2021/12/02 05:57:31;;;;;;;3.80;0.93;;;;;;;1.78;100.00;99985.41;5011550;28;20033;-57
2021/12/02 05:59:57;;;;;;;2.03;0.80;;;;;;;1.77;100.00;99998.97;5010634;28;20018;-58
2021/12/02 06:02:23;;;;;;;6.33;1.30;;;;;;;1.75;100.00;99994.56;5011530;28;20030;-57
2021/12/02 06:04:51;;;;;;;3.87;0.90;;;;;;;1.73;100.00;99997.03;5011082;28;20040;-59
2021/12/02 06:07:18;;;;;;;1.87;0.70;;;;;;;1.71;100.00;99982.44;5008807;28;20037;-58
2021/12/02 06:09:43;;;;;;;2.40;0.60;;;;;;;1.70;100.00;99980.66;5010803;28;20125;-58
2021/12/02 06:12:09;;;;;;;4.27;0.73;;;;;;;1.67;100.00;99977.16;5008069;28;20692;-57
2021/12/02 06:14:34;;;;;;;1.07;0.50;;;;;;;1.61;100.00;99984.50;5011186;28;20113;-55
2021/12/02 06:17:00;;;;;;;2.37;0.60;;;;;;;1.59;100.00;99983.53;5010864;28;20585;-57
2021/12/02 06:19:25;;;;;;;4.13;0.50;;;;;;;1.54;100.00;99974.72;5010507;28;20022;-58
2021/12/02 06:21:51;;;;;;;2.33;0.30;;;;;;;1.47;100.00;99987.97;5010807;28;20021;-57
2021/12/02 06:24:17;;;;;;;4.43;0.80;;;;;;;1.39;100.00;99985.84;5010864;28;20041;-57
2021/12/02 06:26:42;;;;;;;2.20;0.30;;;;;;;1.36;100.00;99995.91;5010456;28;20029;-58
2021/12/02 06:29:08;;;;;;;2.23;0.30;;;;;;;1.28;100.00;100005.69;5010348;28;20453;-57
2021/12/02 06:31:33;;;;;;;2.57;0.50;;;;;;;1.24;100.00;100008.00;5010840;28;20034;-57
2021/12/02 06:33:58;;;;;;;4.23;0.40;;;;;;;1.23;100.00;100011.31;5010399;28;20040;-57
2021/12/02 06:36:24;;;;;;;2.80;0.50;;;;;;;1.21;100.00;100006.13;5009800;28;20041;-58
2021/12/02 06:38:49;;;;;;;1.93;0.37;;;;;;;1.18;100.00;99999.19;5010368;28;20022;-58
2021/12/02 06:41:15;;;;;;;4.03;0.30;;;;;;;1.14;100.00;99997.25;5009724;28;20489;-58
2021/12/02 06:43:41;;;;;;;2.77;0.50;;;;;;;1.08;100.00;99999.44;5009293;28;20119;-58
2021/12/02 06:46:06;;;;;;;2.53;0.50;;;;;;;1.05;100.00;100000.16;5009223;28;20022;-57
2021/12/02 06:48:31;;;;;;;2.30;0.60;;;;;;;0.95;100.00;99993.63;5000256;28;20510;-57
2021/12/02 06:50:57;;;;;;;1.57;0.47;;;;;;;0.97;100.00;100013.28;5002776;28;20323;-58
2021/12/02 06:53:22;;;;;;;2.93;0.50;;;;;;;0.97;100.00;100010.72;5006894;28;20076;-57
2021/12/02 06:55:47;;;;;;;3.67;0.50;;;;;;;1.00;100.00;100016.88;5004640;28;20651;-56
2021/12/02 06:58:13;;;;;;;2.47;0.30;;;;;;;1.05;100.00;100040.09;4999819;28;20026;-57
2021/12/02 07:00:38;;;;;;;1.83;0.50;;;;;;;1.02;100.00;100034.84;5001953;28;20042;-57
2021/12/02 07:03:04;;;;;;;2.47;0.60;;;;;;;1.06;100.00;100047.00;5005401;28;20031;-57
2021/12/02 07:05:32;;;;;;;2.20;0.40;;;;;;;1.07;100.00;100046.19;5008173;28;20083;-56
2021/12/02 07:07:57;;;;;;;4.97;0.53;;;;;;;1.02;100.00;100032.28;5000389;28;20502;-57
2021/12/02 07:10:25;;;;;;;7.77;0.90;;;;;;;1.04;100.00;100038.34;5005968;28;20102;-57
2021/12/02 07:12:58;;;;;;;2.00;0.53;;;;;;;1.05;100.00;100040.09;5004088;28;20109;-58
2021/12/02 07:15:31;;;;;;;3.90;0.90;;;;;;;1.06;100.00;100052.09;5007050;28;20030;-57
2021/12/02 07:17:58;;;;;;;5.23;1.20;;;;;;;1.07;100.00;100048.72;5004955;28;20053;-58
2021/12/02 07:20:26;;;;;;;4.87;1.60;;;;;;;1.07;100.00;100053.84;5000428;28;20080;-57
2021/12/02 07:22:52;;;;;;;3.43;1.70;;;;;;;1.10;100.00;100054.00;5007615;28;20049;-57
2021/12/02 07:25:17;;;;;;;5.37;1.83;;;;;;;1.14;100.00;100055.97;5008623;28;20550;-58
2021/12/02 07:27:42;;;;;;;3.70;2.00;;;;;;;1.18;100.00;100072.31;5007719;28;20018;-58
2021/12/02 07:30:09;;;;;;;4.43;1.30;;;;;;;1.21;100.00;100077.59;5004630;28;20018;-57
2021/12/02 07:32:39;;;;;;;3.13;1.40;;;;;;;1.26;100.00;100065.13;5008202;28;20113;-57
2021/12/02 07:35:09;;;;;;;3.60;1.20;;;;;;;1.26;100.00;100060.88;5006934;28;20248;-58
2021/12/02 07:37:35;;;;;;;3.33;1.08;;;;;;;1.28;100.00;100060.97;5008886;28;20088;-57
2021/12/02 07:40:00;;;;;;;3.37;1.33;;;;;;;1.30;100.00;100072.16;5004871;28;20034;-56
2021/12/02 07:42:26;;;;;;;2.63;1.30;;;;;;;1.31;100.00;100071.38;5002626;28;20042;-57
2021/12/02 07:44:51;;;;;;;5.10;2.13;;;;;;;1.31;100.00;100063.72;5004050;28;20057;-57
2021/12/02 07:47:17;;;;;;;4.87;1.53;;;;;;;1.34;100.00;100075.75;5007974;28;20026;-56
2021/12/02 07:49:43;;;;;;;2.60;1.40;;;;;;;1.33;100.00;100072.34;5004524;28;20072;-57
2021/12/02 07:52:10;;;;;;;7.53;2.00;;;;;;;1.33;100.00;100074.00;5006577;28;20022;-57
2021/12/02 07:54:38;;;;;;;5.20;1.40;;;;;;;1.34;100.00;100070.66;5004252;28;20497;-57
2021/12/02 07:57:04;;;;;;;4.60;1.40;;;;;;;1.36;100.00;100081.84;5006907;28;20022;-57
2021/12/02 07:59:30;;;;;;;5.07;1.67;;;;;;;1.37;100.00;100081.91;5006409;28;20404;-58
2021/12/02 08:02:00;;;;;;;3.93;1.30;;;;;;;1.38;100.00;100080.25;5005933;28;20102;-58
2021/12/02 08:04:26;;;;;;;5.13;1.42;;;;;;;1.40;100.00;100088.88;4999650;28;20022;-57
2021/12/02 08:06:52;;;;;;;1.97;1.20;;;;;;;1.40;100.00;100084.63;5006409;28;20030;-56
2021/12/02 08:09:17;;;;;;;5.00;1.50;;;;;;;1.40;100.00;100086.34;5004511;28;20053;-56
2021/12/02 08:11:42;;;;;;;4.60;1.67;;;;;;;1.38;100.00;100091.34;5002533;28;20021;-58
2021/12/02 08:14:13;;;;;;;3.90;1.40;;;;;;;1.40;100.00;100097.41;5006642;28;20363;-56
2021/12/02 08:16:38;;;;;;;5.70;1.85;;;;;;;1.40;100.00;100089.75;5004721;28;20026;-57
2021/12/02 08:19:03;;;;;;;4.27;1.20;;;;;;;1.41;100.00;100096.63;5006962;28;20044;-58
2021/12/02 08:21:29;;;;;;;2.30;1.23;;;;;;;1.39;100.00;100092.22;5005399;28;20072;-56
2021/12/02 08:23:54;;;;;;;5.97;2.23;;;;;;;1.36;100.00;100090.38;5009961;28;20037;-57
2021/12/02 08:26:20;;;;;;;5.10;2.07;;;;;;;1.33;100.00;100107.19;5011906;28;20034;-57
2021/12/02 08:28:45;;;;;;;3.73;1.67;;;;;;;1.33;100.00;100113.19;5006579;28;20025;-57
2021/12/02 08:31:10;;;;;;;6.23;2.43;;;;;;;1.31;100.00;100107.97;5004801;28;20021;-58
2021/12/02 08:33:36;;;;;;;4.90;2.60;;;;;;;1.34;100.00;100114.94;5013459;28;20428;-56
2021/12/02 08:36:02;;;;;;;5.10;2.80;;;;;;;1.36;100.00;100109.91;5012920;28;20057;-59
2021/12/02 08:38:35;;;;;;;3.10;2.40;;;;;;;1.41;100.00;100116.16;5012889;28;20524;-57
2021/12/02 08:41:01;;;;;;;4.00;2.80;;;;;;;1.49;100.00;100126.84;5012679;28;20473;-56
2021/12/02 08:43:28;;;;;;;5.27;2.77;;;;;;;1.56;100.00;100116.19;5012322;28;20032;-58
2021/12/02 08:45:54;;;;;;;5.53;2.80;;;;;;;1.61;100.00;100124.09;4998825;28;20022;-57
2021/12/02 08:48:19;;;;;;;8.93;3.13;;;;;;;1.57;100.00;100128.16;5005961;28;20052;-58
2021/12/02 08:50:47;;;;;;;4.80;2.47;;;;;;;1.58;100.00;100145.25;5003997;28;20164;-58
2021/12/02 08:53:13;;;;;;;4.90;2.60;;;;;;;1.62;100.00;100159.09;5010518;28;20596;-57
2021/12/02 08:55:39;;;;;;;5.03;3.17;;;;;;;1.71;100.00;100148.50;5011738;28;20021;-57
2021/12/02 08:58:06;;;;;;;6.30;3.13;;;;;;;1.80;100.00;100164.34;5011785;28;20032;-58
2021/12/02 09:00:34;;;;;;;6.27;3.00;;;;;;;1.90;100.00;100183.63;5010807;28;20084;-58
2021/12/02 09:03:00;;;;;;;5.50;3.00;;;;;;;1.94;100.00;100190.69;5011331;28;20029;-57
2021/12/02 09:05:27;;;;;;;6.70;3.03;;;;;;;1.91;100.00;100188.84;5011547;28;20034;-56
2021/12/02 09:07:52;;;;;;;3.50;2.20;;;;;;;1.89;100.00;100192.97;5011051;28;20512;-58
2021/12/02 09:10:21;;;;;;;8.30;2.33;;;;;;;1.80;100.00;100192.44;5010371;28;20038;-58
2021/12/02 09:12:48;;;;;;;5.30;1.87;;;;;;;1.76;100.00;100185.41;5010435;28;20124;-57
2021/12/02 09:15:14;;;;;;;9.07;2.53;;;;;;;1.74;100.00;100197.22;5011818;28;20025;-57
2021/12/02 09:17:39;;;;;;;8.27;2.60;;;;;;;1.73;100.00;100191.22;5010668;28;20025;-56
2021/12/02 09:20:07;;;;;;;5.80;1.60;;;;;;;1.73;100.00;100195.44;5010855;28;20037;-57
2021/12/02 09:22:32;;;;;;;4.83;1.50;;;;;;;1.73;100.00;100200.53;5009845;28;20025;-58
2021/12/02 09:24:58;;;;;;;4.57;2.20;;;;;;;1.75;100.00;100209.19;5010812;28;20030;-58
2021/12/02 09:27:23;;;;;;;5.23;1.90;;;;;;;1.75;100.00;100214.28;5010702;28;20022;-57
2021/12/02 09:29:49;;;;;;;4.37;2.07;;;;;;;1.76;100.00;100218.63;5010162;28;20024;-57
2021/12/02 09:32:14;;;;;;;7.30;2.93;;;;;;;1.77;100.00;100210.16;5010233;28;20038;-58
2021/12/02 09:34:40;;;;;;;5.87;2.17;;;;;;;1.77;100.00;100215.28;5010948;28;20079;-57
2021/12/02 09:37:06;;;;;;;4.40;1.90;;;;;;;1.76;100.00;100216.06;5011188;28;20014;-58
2021/12/02 09:39:33;;;;;;;4.27;2.10;;;;;;;1.78;100.00;100217.06;5010781;28;20471;-58
2021/12/02 09:42:00;;;;;;;9.87;2.43;;;;;;;1.81;100.00;100217.22;5012226;28;20029;-58
2021/12/02 09:44:26;;;;;;;7.30;2.20;;;;;;;1.84;100.00;100219.94;5011123;28;20053;-56
2021/12/02 09:46:52;;;;;;;5.93;2.23;;;;;;;1.90;100.00;100215.19;5012634;28;20378;-58
2021/12/02 09:49:18;;;;;;;5.27;2.10;;;;;;;1.95;100.00;100212.00;5011093;28;20114;-58
2021/12/02 09:55:04;;;;;;;6.00;1.80;;;;;;;2.01;100.00;100208.16;5011723;28;20084;-59
2021/12/02 09:57:04;;;;;;;7.07;2.30;;;;;;;2.07;100.00;100202.47;5010076;28;20037;-58
2021/12/02 10:02:04;;;;;;;4.13;1.70;;;;;;;2.08;100.00;100209.38;5007001;28;20030;-56
2021/12/02 10:04:32;;;;;;;5.47;2.03;;;;;;;2.10;100.00;100204.34;5009875;28;20049;-57
2021/12/02 10:07:08;;;;;;;3.83;1.90;;;;;;;2.15;100.00;100206.34;5011443;28;20417;-56
2021/12/02 10:09:40;;;;;;;5.03;1.80;;;;;;;2.20;100.00;100213.38;5011099;28;20057;-56
2021/12/02 10:12:14;;;;;;;8.57;1.87;;;;;;;2.22;100.00;100216.91;5011366;28;20498;-57
2021/12/02 10:14:47;;;;;;;5.47;1.90;;;;;;;2.25;100.00;100217.97;5008908;28;20053;-58
2021/12/02 10:17:38;;;;;;;3.93;1.50;;;;;;;2.31;100.00;100227.66;5011766;28;20080;-58
2021/12/02 10:22:42;;;;;;;8.60;1.63;;;;;;;2.34;100.00;100225.25;5007309;28;20250;-57
2021/12/02 10:25:10;;;;;;;4.03;1.70;;;;;;;2.35;100.00;100233.81;5008059;28;20391;-58
2021/12/02 10:27:35;;;;;;;3.70;1.33;;;;;;;2.34;100.00;100238.06;5009573;28;20030;-58
2021/12/02 10:30:19;;;;;;;8.87;1.73;;;;;;;2.34;100.00;100238.06;5008965;28;20026;-56
2021/12/02 10:32:50;;;;;;;4.37;1.33;;;;;;;2.35;100.00;100237.28;5008155;28;20490;-56
2021/12/02 10:35:17;;;;;;;4.90;1.30;;;;;;;2.33;100.00;100236.31;5006240;28;20018;-57
2021/12/02 10:37:43;;;;;;;2.90;1.33;;;;;;;2.30;100.00;100236.16;5008156;28;20037;-58
2021/12/02 10:40:10;;;;;;;3.07;0.90;;;;;;;2.26;100.00;100239.31;5007339;28;20030;-57
2021/12/02 10:42:42;;;;;;;4.33;1.03;;;;;;;2.24;100.00;100246.91;5008907;28;20048;-56
2021/12/02 10:45:17;;;;;;;;;;;;;;;2.28;100.00;100247.97;5008843;28;20026;-57
2021/12/02 10:47:52;;;;;;;3.63;1.20;;;;;;;2.32;100.00;100247.31;5007363;28;19920;-58
2021/12/02 10:50:18;;;;;;;4.27;1.10;;;;;;;2.39;100.00;100251.97;5008859;28;20022;-58
2021/12/02 10:52:44;;;;;;;4.00;1.70;;;;;;;2.48;100.00;100256.72;5008679;28;20083;-58
2021/12/02 10:55:14;;;;;;;3.13;1.50;;;;;;;2.54;100.00;100248.50;5008895;28;20033;-57
2021/12/02 10:57:51;;;;;;;3.90;1.57;;;;;;;2.64;100.00;100261.00;5008458;28;20029;-57
2021/12/02 11:00:26;;;;;;;3.60;1.33;;;;;;;2.74;100.00;100261.53;5007969;28;20060;-58
2021/12/02 11:02:54;;;;;;;3.27;1.13;;;;;;;2.84;100.00;100260.34;5011002;28;20486;-58
2021/12/02 11:05:26;;;;;;;1.80;1.63;;;;;;;2.90;100.00;100259.81;5010428;28;20371;-56
2021/12/02 11:08:33;;;;;;;5.13;1.50;;;;;;;3.04;100.00;100261.41;5004400;28;20034;-57
2021/12/02 11:10:58;;;;;;;3.93;1.27;;;;;;;3.16;100.00;100257.75;4999232;28;20071;-58
2021/12/02 11:13:25;;;;;;;3.53;1.33;;;;;;;3.20;100.00;100264.81;4998904;28;20038;-58
2021/12/02 11:15:51;;;;;;;2.97;0.73;;;;;;;3.17;100.00;100269.75;5010080;28;20075;-58
2021/12/02 11:18:17;;;;;;;4.13;0.80;;;;;;;3.09;100.00;100266.78;5004445;28;20491;-57
2021/12/02 11:20:51;;;;;;;3.77;0.90;;;;;;;3.03;100.00;100266.44;5002556;28;20076;-56
2021/12/02 11:23:18;;;;;;;2.63;0.87;;;;;;;2.97;100.00;100274.69;4999669;28;20041;-57
2021/12/02 11:25:49;;;;;;;1.70;0.80;;;;;;;2.90;100.00;100275.16;4999488;28;20030;-58
2021/12/02 11:28:14;;;;;;;;;;;;;;;2.84;100.00;100280.84;4998450;28;20022;-57
2021/12/02 11:30:40;;;;;;;5.90;1.47;;;;;;;2.82;100.00;100282.41;4995416;28;19971;-58
2021/12/02 11:33:08;;;;;;;3.70;1.47;;;;;;;2.86;100.00;100274.97;4995765;28;20030;-56
2021/12/02 11:35:36;;;;;;;3.40;1.40;;;;;;;3.12;100.00;100280.63;4999260;28;20352;-57
2021/12/02 11:38:04;;;;;;;3.83;1.07;;;;;;;3.43;100.00;100283.94;4998636;28;20033;-58
2021/12/02 11:40:42;;;;;;;3.10;1.03;;;;;;;3.71;100.00;100281.91;4994244;28;20026;-57
2021/12/02 11:43:11;;;;;;;2.77;0.73;;;;;;;3.86;100.00;100283.50;5004788;28;20026;-57
2021/12/02 11:45:57;;;;;;;1.50;0.60;;;;;;;3.92;100.00;100286.38;4996109;28;20048;-58
2021/12/02 11:48:27;;;;;;;2.03;0.50;;;;;;;4.01;100.00;100279.13;5003467;28;20034;-57
2021/12/02 11:50:55;;;;;;;1.93;0.80;;;;;;;4.07;100.00;100269.19;4999762;28;20030;-58
2021/12/02 11:53:22;;;;;;;2.50;0.70;;;;;;;4.05;100.00;100275.91;4994312;28;20045;-57
2021/12/02 11:56:02;;;;;;;2.20;0.50;;;;;;;4.00;100.00;100277.38;5003742;28;20018;-58